SMRA30 UAOL 161500
AAXX 16151

=
30089 42999 01801 11075 21085 30022 40251 52004=
30230 419// 52902 11028 21028 39931 40259 57013 71122 80001=
30252 429// 70000 11045 21054 39963 40279 58002 80001=
30309 429// 30501 10030 20006 39698 40207 56022 80002=
30337 429// 22501 11033 21039 39804 40255 57010 80001=
30372 42999 20000 11072 21087 39410 40300 54001 80001=
30393 42999 42003 11048 21110 39213 40265 57002 80001=
30405 429// 81001 10014 20001 39680 40200 57016 80001=
30433 429// 03401 10009 21069 39678 40267 57003=
30499 42999 22503 11043 21104 39598 40259 52002 80001=
30504 426// 71102 10027 20001 39559 40192 58014 83532=
30521 429// 20000 11036 21049 39717 40244 57003 80001=
30554 429// 20000 11065 21080 39190 40303 52002 80001=
30603 429// 80000 10016 20001 39638 40198 56016 80001=
30612 429// 52802 11004 21016 39687 40216 57013 80005=
30622 429// 00000 11031 21044 39606 40256 57003=
30627 42999 01002 10053 21030 39324 40228 57006=
30635 429// 30701 11005 21009 39694 40266 58005 80001=
30636 429// 00000 11028 21038 39664 40275 57003=
30673 42999 60000 11072 21108 39499 40286 54001 80001=
30683 429// 63201 11045 21124 39608 40263 57002 80004=
30703 429// 80000 11036 21046 39545 40220 58012 80001=
30710 429// 01302 10055 20031 39653 40220 57005=
30758 42984 00802 11027 21073 39459 40288 52003=
30764 429// 00000 11074 21088 39492 40306 52004=
30802 42999 13001 11035 21049 38742 48524 52003 80001=
30823 41998 00902 10012 21031 39631 40263 55001 70400=
30846 42999 00000 11033 21066 39375 40290 52003=
30859 42999 02702 11058 21085 39458 40310 52002=
30862 429// 02401 11018 21085 39549 40288 52002=
30879 429// 00000 11033 21121 39515 40284 52002=
30935 42999 30000 11023 21036 39340 40283 52008 80001=
30949 429// 00000 11041 21073 39199 40309 52007=
30957 429// 01601 11039 21073 39399 40303 52006=
30965 429// 00501 11078 21120 39463 40315 52006=
31004 42999 20000 11019 21098 39405 40238 54000 80001=
31088 42599 53603 11034 21079 30220 40227 54001 82531=
31123 42598 800// 11014 21062 39924 40246 57006 885//=
31137 42999 82301 11050 21082 39206 40247 57007 8802/=
31168 42999 81801 11004 21091 30200 40210 57005 8805/=
31253 42999 00000 10001 21093 39764 40215 54001=
31295 42999 00000 11052 21111 39777 40239 52001=
31300 42999 00000 11045 21089 39932 40228 57004=
31329 42/// /0000 11065 21075 39543 40221 57004=
31348 42999 20000 11049 21055 30012 40209 54006 81041=
31369 42598 82902 10017 20003 30062 40120 58015 889//=
31418 42599 73401 11007 21056 39947 40200 50001 87900=
31445 42984 03003 11046 21076 39968 40224 50000=
31474 42999 00000 11039 21051 39704 40187 54000=
31510 429// 03004 11012 21051 30011 40225 57001=
31538 42998 32201 11004 21034 39752 40185 50000 83040=
31707 42598 43104 10020 21011 30102 40192 52002 82401=
31735 42660 73203 10039 21006 30083 40170 51006 84530 333 84646=
31873 42997 72501 10026 21001 30060 40186 52004 87030=
31909 42998 02905 10047 21031 30060 40136 58010 333 91010 91113=
31960 42999 03504 10041 21020 39970 40203 52006 333 91115=
31961 42999 50000 10015 21014 30164 40209 54001 80001=
32287 82998 20401 11038 21060 30157 40167 54001 82070=
32389 82/// /2301 11015 21050 30157 40194 52002=
32408 42698 40402 11028 21054 30163 40192 52003 84500=
32411 42/// /1003 10017 21014 30153 40160 52002=
32477 42597 61703 10075 20069 30131 40162 52004 86500=
32509 42598 80206 10055 20038 30140 40182 51001 885//=
32562 82598 81603 10057 20057 30133 40170 58001 885//=
32583 82598 71701 10045 20028 30147 40177 52004 84531=
32594 82698 51403 10047 20023 30142 40177 57005 85500 333 91111=
32596 42998 00000 10009 20009 30161 40188 52003=
32618 81598 20103 10033 20012 30157 40179 52011 70281 82500=
33008 32965 03601 10191 20062 30059 40230 57003=
33019 32965 31001 10185 20076 30074 40242 57003 80001=
33027 32998 20000 10191 20104 30106 40268 52008 80001=
33036 32965 00000 10169 20086 30038 40263 57007=
33038 32997 00000 10174 20088 30096 40265 57008=
33041 32973 00000 10178 20095 30117 40268 57007=
33088 42997 01602 10204 20054 30061 40244 57003 555 1/017=
33124 32980 01601 10196 20088 30127 40264 57013=
33135 42997 00000 10182 20114 30126 40269 57008 555 1/013=
33177 42998 20000 10182 20108 30003 40232 57003 80001 555 1/015=
33231 42997 00000 10174 20107 30114 40265 57006 555 1/012=
33246 42997 00000 10186 20123 30117 40266 57007 555 1/015=
33261 42997 10000 10185 20113 30097 40274 57006 80001 555 1/014=
33275 42997 00701 10203 20101 30057 40272 57007 555 1/016=
33301 42998 01603 10200 20010 39969 40240 57005 555 1/015=
33317 42998 01602 10178 20047 39923 40249 57005 555 1/015=
33325 42997 00000 10190 20087 39998 40256 57006 555 1/014=
33345 42998 30000 10194 20103 30066 40263 56007 80005 555 10015=
33356 42974 00101 10192 20128 30116 40267 57006 555 1/017=
33362 42997 00000 10185 20111 30109 40267 57005 555 1/016=
33376 42998 00000 10191 20137 30087 40269 57007 555 1/016=
33377 42997 00000 10194 20134 30083 40270 57005 555 1/015=
33393 42960 01301 10201 20065 39853 40228 57004 555 1/017=
33415 42997 01403 10187 20044 39857 40240 57004 555 1/016=
33429 42997 01602 10187 20053 39840 40247 57004 555 1/015=
33466 42998 00801 10198 20112 30085 40265 57004 555 10016=
33487 42997 00902 10180 20092 30139 40267 57006 555 1/015=
33495 42997 00901 10211 20119 30153 40267 57005 555 1/017=
33506 42997 21101 10210 20108 30080 40268 57006 81031 555 1/017=
33526 42970 00000 10200 20055 39906 40232 57005 555 1/017=
33562 42963 01402 10198 20070 39907 40254 57006 555 1/019=
33587 42998 00000 10181 20111 30005 40259 57005 555 1/013=
33609 42997 00601 10198 20114 30044 40257 57010 555 1/014=
33614 42998 00201 10204 20122 30166 40267 57005 555 1/017=
33621 42965 00602 10225 20118 30122 40260 57007 555 1/016=
33631 42997 00000 10222 20027 30091 40229 57005 555 1/018=
33658 42981 01205 10195 20050 39948 40236 57006 555 1/017=
33663 42998 01601 10218 20093 30157 40249 57006 555 1/018=
33664 42998 01402 10194 20047 39938 40243 57006=
33678 42998 20000 10215 20050 30045 40248 57008 80001=
33679 42997 01701 10234 20113 30067 40248 57008=
33711 42998 00702 10208 20089 30058 40259 57004 555 1/019=
33717 42998 00902 10217 20081 30084 40251 57003 555 1/018=
33723 42966 00201 10203 20109 30122 40261 56004 555 1/017=
33744 42998 01202 10224 20064 30055 40246 57005=
33745 42997 00000 10216 20047 30068 40253 57005=
33748 42997 01201 10212 20039 39968 40240 57002=
33749 42998 00000 10203 20059 30149 40243 57004=
33754 42998 01102 10225 20089 30105 40245 56004=
33761 42998 00701 10214 20111 30037 40250 57002 555 1/018=
33777 42998 00901 10219 20109 30210 40250 57004 555 1/018=
33791 42997 00703 10218 20095 30109 40253 56005 555 1/020=
33815 42998 11001 10215 20041 30040 40239 57005 80001=
33821 42997 00000 10236 20094 30197 40246 57005=
33829 42997 01002 10228 20088 30202 40250 57004=
33837 42981 00101 10188 20085 30192 40242 57008 555 1/018=
33846 42984 00804 10231 20093 30186 40244 56004 555 1/022=
33862 42998 00901 10217 20096 30183 40251 57004 555 1/019=
33869 42973 00000 10198 20118 30212 40242 57003 555 1/018=
33881 42998 00601 10202 20034 30052 40241 57004=
33883 42998 00502 10216 20047 30078 40237 57003=
33885 42998 00803 10223 20053 30098 40233 57002=
33886 42998 00702 10227 20036 30150 40226 57003=
33889 42998 00503 10210 20061 30196 40232 57005 555 1/021=
33892 42998 01101 10202 20051 30043 40247 56001=
33902 42998 00902 10221 20094 30180 40243 56002 555 1/020=
33910 42998 00802 10166 20128 30224 40242 57005 555 1/014=
33915 42998 00503 10202 20066 30206 40241 57003 555 1/018=
34003 22598 22301 10142 20067 39979 40277 57005 82500 333 60002=
34009 22997 20000 10162 20091 39984 40279 56006 80001 333 60002=
34013 22997 53001 10169 20066 30061 40274 57006 80031 333 60002=
34109 22999 00000 10162 20067 30048 40277 57005 333 60002=
34110 22998 30000 10160 20085 30009 40278 57006 80001 333 60002=
34202 22999 00000 10185 20073 30008 40274 57007 333 60002=
34300 42960 20000 10201 20094 30090 40273 57006 80001 555 1/016=
34321 22998 30201 10182 20112 30134 40268 57008 80001 333 60002=
34415 42997 00000 10178 20117 30176 40269 56007 555 1/015=
34504 42997 00603 10189 20097 30087 40259 56008 555 1/016=
34560 42997 23403 10162 20063 30083 40267 54000 80001 333 10227=
34601 42960 00202 10216 20092 30127 40257 57003 555 1/015=
34607 42998 00902 10204 20097 30149 40253 57002 555 1/017=
34712 42998 30705 10186 20121 30167 40250 57009 80008 555 1/017=
35120 12497 81902 10063 20006 30101 40251 57004 69902 885// 333   10063 88618 555   50020 53007=
35138 12697 82504 10023 21018 39910 40265 54001 60002 8655/ 333   10043 86640 555   50001 53008=
36020 42498 51904 10033 21020 39979 40176 52026 82932=
36021 42999 52104 10036 21030 30010 40187 52022 85070=
36022 42998 02202 10025 21042 39940 40198 52021=
36038 42598 81703 10035 21018 39781 40217 52017 885//=
36058 41697 82001 10057 20030 39689 40195 52016 78082 889//=
36229 42599 62703 10036 20009 39061 40205 52003 86900=
36259 42599 81203 10066 21084 38211 48475 52007 84902=
36911 215// 82303 11004 21013 39294 40284 52027 78588 889// 333 10048 555 69952=
36974 /16// 83501 10010 21022 37935 48489 52016 78382 889// 333 10075 555 69902=
36982 325// 83503 11042 21111 36480 47012 54000 8557/ 333 10001=
38178 329// 00000 10024 21106 39991 40283 52017 333 10063 555 53007=
38262 329// 00201 10025 21034 30224 40307 52003 333 10091=
38264 32998 20302 10050 21019 30219 40313 52016 82030 333 10092=
38345 /1496 80000 11024 21027 38841 48528 52023 77177 8872/ 333 10009 555 60032=
38353 645// 83201 11005 21008 39381 40301 52029 6//// 771// 885// 333 10040 91002 555 53006=
38613 /19// 80202 10042 20037 40254 52024 70262 8802/ 333 10084 555 60072=
38616 /15// 82706 10044 20034 39232 40254 52023 76166 8872/ 333 10086 555 60022=30054 42998 21801 11029 21035 30026 40269 57001 80001


SMUS30 KWBC 161500
AAXX 16154
37682 32997 03602 10134 20062 38202 48579 53007 555 10202=
37717 32999 03601 10090 20073 38160 48574 57003 555 10154=
37788 32999 03401 10186 20074 39229 40186 57006=